Time;durP1;ratioP1;P1;durP2;ratioP2;P2;SDS_P1;SDS_P2;PMS_P1;PMS_P2;Temp;Humidity;BMP_temperature;BMP_pressure;BME280_temperature;BME280_humidity;BME280_pressure;Samples;Min_cycle;Max_cycle;Signal;HPM_P1;HPM_P2
2022/07/03 00:01:24;;;;;;;1.27;0.47;;;24.70;81.30;;;-143.79;100.00;62634.88;5034981;28;20045;-61
2022/07/03 00:03:50;;;;;;;1.70;0.70;;;25.00;81.80;;;-143.79;100.00;62634.88;5034935;28;20040;-61
2022/07/03 00:06:17;;;;;;;0.77;0.40;;;24.90;81.40;;;-143.79;100.00;62634.88;5034640;28;20050;-61
2022/07/03 00:08:42;;;;;;;1.10;0.55;;;24.80;81.50;;;-143.79;100.00;62634.88;5034842;28;20037;-61
2022/07/03 00:11:09;;;;;;;1.23;0.70;;;25.00;72.10;;;-143.79;100.00;62634.88;5033587;28;20116;-61
2022/07/03 00:13:35;;;;;;;0.57;0.47;;;24.70;81.50;;;-143.79;100.00;62634.88;5034983;28;20171;-61
2022/07/03 00:16:01;;;;;;;1.60;0.50;;;25.00;81.70;;;-143.79;100.00;62634.88;5034644;28;20092;-61
2022/07/03 00:18:27;;;;;;;0.63;0.50;;;24.90;81.70;;;-143.79;100.00;62634.88;5034948;28;20041;-61
2022/07/03 00:21:05;;;;;;;1.23;0.73;;;24.80;81.80;;;-143.79;100.00;62634.88;5034656;28;20037;-61
2022/07/03 00:23:44;;;;;;;1.25;0.30;;;25.10;81.90;;;-143.79;100.00;62634.88;5034586;28;20033;-61
2022/07/03 00:26:13;;;;;;;0.70;0.55;;;25.10;82.10;;;-143.79;100.00;62634.88;5034777;28;20029;-61
2022/07/03 00:28:41;;;;;;;2.50;0.70;;;24.70;81.80;;;-143.79;100.00;62634.88;5034436;28;20503;-61
2022/07/03 00:31:07;;;;;;;0.82;0.68;;;24.70;81.70;;;-143.79;100.00;62634.88;5034345;28;20042;-61
2022/07/03 00:33:36;;;;;;;0.50;0.43;;;24.90;82.20;;;-143.79;100.00;62634.88;5034640;28;20076;-61
2022/07/03 00:36:03;;;;;;;0.60;0.47;;;24.60;81.70;;;-143.79;100.00;62634.88;5034311;28;20095;-61
2022/07/03 00:38:29;;;;;;;1.92;0.80;;;25.00;82.00;;;-143.79;100.00;62634.88;5034390;28;20578;-61
2022/07/03 00:40:54;;;;;;;2.10;0.50;;;25.00;82.10;;;-143.79;100.00;62634.88;5034432;28;20037;-61
2022/07/03 00:43:21;;;;;;;1.30;0.40;;;24.60;73.50;;;-143.79;100.00;62634.88;5034412;28;20030;-61
2022/07/03 00:45:50;;;;;;;1.00;0.57;;;24.70;81.90;;;-143.79;100.00;62634.88;5034102;28;20029;-61
2022/07/03 00:48:18;;;;;;;0.60;0.57;;;24.60;81.60;;;-143.79;100.00;62634.88;5034108;28;20041;-61
2022/07/03 00:50:50;;;;;;;0.60;0.50;;;24.90;51.40;;;-143.79;100.00;62634.88;5034009;28;20117;-61
2022/07/03 00:53:28;;;;;;;0.57;0.50;;;24.80;82.00;;;-143.79;100.00;62634.88;5033988;28;20060;-61
2022/07/03 00:55:55;;;;;;;0.77;0.43;;;24.70;81.70;;;-143.79;100.00;62634.88;5032898;28;20037;-61
2022/07/03 00:58:22;;;;;;;0.40;0.30;;;24.70;81.90;;;-143.79;100.00;62634.88;5033913;28;20498;-61
2022/07/03 01:00:51;;;;;;;0.88;0.43;;;24.60;81.70;;;-143.79;100.00;62634.88;5033836;28;20041;-61
2022/07/03 01:03:20;;;;;;;0.70;0.40;;;24.90;81.70;;;-143.79;100.00;62634.88;5033734;28;20069;-61
2022/07/03 01:05:54;;;;;;;0.90;0.40;;;24.70;59.20;;;-143.79;100.00;62634.88;5033475;28;20306;-61
2022/07/03 01:08:41;;;;;;;1.10;0.50;;;24.70;66.40;;;-143.79;100.00;62634.88;5033756;28;20115;-61
2022/07/03 01:11:28;;;;;;;0.60;0.28;;;24.50;81.80;;;-143.79;100.00;62634.88;5033647;28;20392;-61
2022/07/03 01:14:05;;;;;;;1.55;0.50;;;24.90;81.80;;;-143.79;100.00;62634.88;5033673;28;20048;-61
2022/07/03 01:16:40;;;;;;;0.50;0.30;;;24.30;81.30;;;-143.79;100.00;62634.88;5033636;28;20060;-61
2022/07/03 01:19:46;;;;;;;1.05;0.43;;;24.90;81.50;;;-143.79;100.00;62634.88;5033774;28;20131;-61
2022/07/03 01:22:31;;;;;;;1.13;0.32;;;24.90;81.80;;;-143.79;100.00;62634.88;5033459;28;20029;-61
2022/07/03 01:25:25;;;;;;;0.77;0.30;;;24.90;81.30;;;-143.79;100.00;62634.88;5032227;28;20070;-61
2022/07/03 01:28:01;;;;;;;0.93;0.38;;;25.00;81.80;;;-143.79;100.00;62634.88;5033376;28;20065;-61
2022/07/03 01:30:52;;;;;;;1.00;0.50;;;24.90;81.90;;;-143.79;100.00;62634.88;5033362;28;20530;-61
2022/07/03 01:33:25;;;;;;;1.20;0.68;;;24.90;82.20;;;-143.79;100.00;62634.88;5033345;28;20076;-61
2022/07/03 01:36:09;;;;;;;1.75;0.40;;;24.70;82.20;;;-143.79;100.00;62634.88;5033228;28;20120;-61
2022/07/03 01:38:38;;;;;;;1.27;0.40;;;24.70;82.00;;;-143.79;100.00;62634.88;5031891;28;20496;-61
2022/07/03 01:41:07;;;;;;;0.90;0.40;;;24.60;51.60;;;-143.79;100.00;62634.88;5033033;28;20041;-60
2022/07/03 01:43:48;;;;;;;0.63;0.37;;;24.50;82.00;;;-143.79;100.00;62634.88;5033294;28;20037;-61
2022/07/03 01:46:17;;;;;;;0.40;0.40;;;24.50;82.00;;;-143.79;100.00;62634.88;5032971;28;20055;-61
2022/07/03 01:48:45;;;;;;;0.45;0.32;;;24.80;82.50;;;-143.79;100.00;62634.88;5032987;28;20042;-61
2022/07/03 01:51:16;;;;;;;0.88;0.50;;;24.80;82.40;;;-143.79;100.00;62634.88;5033239;28;20373;-61
2022/07/03 01:53:48;;;;;;;0.40;0.40;;;24.80;82.30;;;-143.79;100.00;62634.88;5032971;28;20107;-61
2022/07/03 01:56:15;;;;;;;0.25;0.22;;;24.80;82.10;;;-143.79;100.00;62634.88;5032810;28;20040;-61
2022/07/03 01:58:41;;;;;;;1.23;0.50;;;24.90;82.50;;;-143.79;100.00;62634.88;5032860;28;20511;-60
2022/07/03 02:01:51;;;;;;;1.33;0.32;;;24.70;51.70;;;-143.79;100.00;62634.88;5032739;28;20049;-61
2022/07/03 02:05:08;;;;;;;0.40;0.30;;;24.50;82.30;;;-143.79;100.00;62634.88;5024200;28;20127;-61
2022/07/03 02:07:50;;;;;;;0.68;0.40;;;24.40;81.90;;;-143.79;100.00;62634.88;5031150;28;20128;-61
2022/07/03 02:10:17;;;;;;;0.88;0.30;;;24.60;51.80;;;-143.79;100.00;62634.88;5031508;28;20071;-61
2022/07/03 02:12:59;;;;;;;0.73;0.43;;;24.90;82.50;;;-143.79;100.00;62634.88;5032875;28;20055;-51
2022/07/03 02:15:31;;;;;;;0.75;0.35;;;24.80;82.40;;;-143.79;100.00;62634.88;5032500;28;20029;-54
2022/07/03 02:17:59;;;;;;;0.63;0.30;;;24.70;82.40;;;-143.79;100.00;62634.88;5032525;28;20084;-54
2022/07/03 02:20:25;;;;;;;1.90;0.35;;;24.60;82.50;;;-143.79;100.00;62634.88;5031511;28;20025;-53
2022/07/03 02:23:02;;;;;;;0.98;0.32;;;24.40;82.30;;;-143.79;100.00;62634.88;5031243;28;20041;-53
2022/07/03 02:25:37;;;;;;;1.40;0.30;;;24.60;52.20;;;-143.79;100.00;62634.88;5031330;28;20121;-52
2022/07/03 02:28:24;;;;;;;1.23;0.57;;;24.80;82.40;;;-143.79;100.00;62634.88;5031244;28;20046;-54
2022/07/03 02:30:55;;;;;;;1.27;0.40;;;24.70;82.40;;;-143.79;100.00;62634.88;5032482;28;20083;-52
2022/07/03 02:33:31;;;;;;;1.08;0.45;;;24.40;82.30;;;-143.79;100.00;62634.88;5031182;28;20037;-53
2022/07/03 02:35:58;;;;;;;1.33;0.50;;;24.30;82.10;;;-143.79;100.00;62634.88;5032213;28;20036;-53
2022/07/03 02:38:26;;;;;;;1.00;0.25;;;24.70;82.50;;;-143.79;100.00;62634.88;5032249;28;20037;-53
2022/07/03 02:40:58;;;;;;;0.35;0.20;;;24.40;82.30;;;-143.79;100.00;62634.88;5032509;28;20041;-52
2022/07/03 02:43:49;;;;;;;0.65;0.30;;;24.60;82.70;;;-143.79;100.00;62634.88;5032488;28;20041;-52
2022/07/03 02:46:50;;;;;;;0.73;0.30;;;24.50;82.60;;;-143.79;100.00;62634.88;5031041;28;20033;-53
2022/07/03 02:49:36;;;;;;;0.60;0.40;;;24.80;82.80;;;-143.79;100.00;62634.88;5025358;28;20054;-50
2022/07/03 02:52:32;;;;;;;0.80;0.45;;;24.60;51.80;;;-143.79;100.00;62634.88;5032207;28;20073;-53
2022/07/03 02:55:43;;;;;;;0.88;0.30;;;24.70;78.50;;;-143.79;100.00;62634.88;5032106;28;20384;-52
2022/07/03 02:58:28;;;;;;;0.65;0.38;;;24.30;82.70;;;-143.79;100.00;62634.88;5032060;28;20044;-52
2022/07/03 03:01:18;;;;;;;0.68;0.22;;;24.50;82.70;;;-143.79;100.00;62634.88;5032097;28;20037;-54
2022/07/03 03:04:14;;;;;;;0.55;0.32;;;24.80;82.60;;;-143.79;100.00;62634.88;5032050;28;20034;-54
2022/07/03 03:06:56;;;;;;;0.93;0.50;;;24.60;52.20;;;-143.79;100.00;62634.88;5031978;28;20056;-53
2022/07/03 03:09:40;;;;;;;0.60;0.30;;;24.70;83.20;;;-143.79;100.00;62634.88;5030827;28;20040;-54
2022/07/03 03:12:06;;;;;;;0.45;0.40;;;24.50;83.20;;;-143.79;100.00;62634.88;5031975;28;20029;-53
2022/07/03 03:14:43;;;;;;;0.93;0.40;;;24.70;67.10;;;-143.79;100.00;62634.88;5030698;28;20047;-51
2022/07/03 03:17:23;;;;;;;0.75;0.30;;;24.40;83.10;;;-143.79;100.00;62634.88;5031992;28;20456;-51
2022/07/03 03:19:55;;;;;;;0.75;0.30;;;24.00;82.70;;;-143.79;100.00;62634.88;5033320;28;20033;-53
2022/07/03 03:22:40;;;;;;;1.10;0.30;;;24.20;83.10;;;-143.79;100.00;62634.88;5035731;28;20033;-51
2022/07/03 03:25:06;;;;;;;0.40;0.35;;;24.50;83.20;;;-143.79;100.00;62634.88;5035718;28;20052;-52
2022/07/03 03:27:32;;;;;;;0.50;0.22;;;24.70;83.20;;;-143.79;100.00;62634.88;5035449;28;20687;-54
2022/07/03 03:29:58;;;;;;;1.25;0.30;;;24.70;83.10;;;-143.79;100.00;62634.88;5034345;28;20064;-54
2022/07/03 03:32:26;;;;;;;1.48;0.55;;;24.40;83.00;;;-143.79;100.00;62634.88;5035823;28;20514;-51
2022/07/03 03:34:51;;;;;;;0.73;0.30;;;24.60;83.20;;;-143.79;100.00;62634.88;5035498;28;20479;-54
2022/07/03 03:37:17;;;;;;;0.60;0.30;;;24.40;83.00;;;-143.79;100.00;62634.88;5035453;28;20038;-53
2022/07/03 03:39:43;;;;;;;1.52;0.40;;;24.30;83.00;;;-143.79;100.00;62634.88;5035378;28;20061;-51
2022/07/03 03:42:09;;;;;;;0.57;0.30;;;24.70;82.90;;;-143.79;100.00;62634.88;5035495;28;20083;-51
2022/07/03 03:44:35;;;;;;;1.27;0.30;;;24.10;82.80;;;-143.79;100.00;62634.88;5035351;28;20030;-50
2022/07/03 03:47:01;;;;;;;0.65;0.28;;;24.70;83.30;;;-143.79;100.00;62634.88;5035185;28;20430;-53
2022/07/03 03:49:28;;;;;;;1.75;0.30;;;24.50;83.30;;;-143.79;100.00;62634.88;5035234;28;20025;-52
2022/07/03 03:51:54;;;;;;;0.60;0.32;;;24.60;83.10;;;-143.79;100.00;62634.88;5035121;28;20522;-51
2022/07/03 03:54:20;;;;;;;0.40;0.28;;;;;;;-143.79;100.00;62634.88;5035092;28;20045;-52
2022/07/03 03:56:46;;;;;;;1.35;0.40;;;;;;;-143.79;100.00;62634.88;5035055;28;20075;-54
2022/07/03 03:59:12;;;;;;;1.85;0.63;;;24.50;63.00;;;-143.79;100.00;62634.88;5034957;28;20480;-54
2022/07/03 04:01:38;;;;;;;1.27;0.20;;;24.40;83.20;;;-143.79;100.00;62634.88;5034926;28;20037;-52
2022/07/03 04:04:04;;;;;;;1.38;0.40;;;;;;;-143.79;100.00;62634.88;5034888;28;20032;-52
2022/07/03 04:06:30;;;;;;;0.73;0.20;;;;;;;-143.79;100.00;62634.88;5033455;28;20056;-51
2022/07/03 04:08:57;;;;;;;0.30;0.20;;;;;;;-143.79;100.00;62634.88;5034856;28;20022;-52
2022/07/03 04:11:22;;;;;;;0.73;0.40;;;24.60;82.70;;;-143.79;100.00;62634.88;5035034;28;20025;-54
2022/07/03 04:13:48;;;;;;;1.27;0.40;;;;;;;-143.79;100.00;62634.88;5034726;28;20037;-51
2022/07/03 04:16:14;;;;;;;0.57;0.32;;;24.30;72.80;;;-143.79;100.00;62634.88;5034999;28;20030;-53
2022/07/03 04:18:40;;;;;;;0.85;0.32;;;24.50;83.60;;;-143.79;100.00;62634.88;5034774;28;20518;-51
2022/07/03 04:21:06;;;;;;;1.40;0.20;;;23.90;82.90;;;-143.79;100.00;62634.88;5034591;28;20052;-52
2022/07/03 04:23:32;;;;;;;0.70;0.35;;;24.60;83.60;;;-143.79;100.00;62634.88;5034593;28;20069;-52
2022/07/03 04:26:05;;;;;;;0.80;0.60;;;24.10;83.20;;;-143.79;100.00;62634.88;5034471;28;20100;-52
2022/07/03 04:28:32;;;;;;;1.75;0.50;;;24.30;83.30;;;-143.79;100.00;62634.88;5034768;28;20437;-54
2022/07/03 04:30:57;;;;;;;1.65;0.50;;;24.00;83.00;;;-143.79;100.00;62634.88;5034260;28;20034;-51
2022/07/03 04:33:23;;;;;;;0.98;0.40;;;23.90;83.00;;;-143.79;100.00;62634.88;5034367;28;20090;-54
2022/07/03 04:35:49;;;;;;;1.58;0.40;;;24.30;83.40;;;-143.79;100.00;62634.88;5034388;28;20129;-52
2022/07/03 04:38:15;;;;;;;1.23;0.30;;;24.20;83.30;;;-143.79;100.00;62634.88;5034409;28;20443;-52
2022/07/03 04:40:41;;;;;;;1.10;0.32;;;24.00;83.20;;;-143.79;100.00;62634.88;5034186;28;20033;-51
2022/07/03 04:43:06;;;;;;;1.20;0.40;;;24.20;83.20;;;-143.79;100.00;62634.88;5034228;28;20037;-52
2022/07/03 04:45:32;;;;;;;1.60;0.60;;;24.10;83.40;;;-143.79;100.00;62634.88;5034204;28;20037;-52
2022/07/03 04:47:58;;;;;;;1.38;0.40;;;;;;;-143.79;100.00;62634.88;5034043;28;20041;-54
2022/07/03 04:50:24;;;;;;;1.35;0.40;;;;;;;-143.79;100.00;62634.88;5034086;28;20049;-51
2022/07/03 04:52:50;;;;;;;1.15;0.50;;;23.70;83.00;;;-143.79;100.00;62634.88;5034019;28;20060;-52
2022/07/03 04:55:16;;;;;;;0.30;0.25;;;24.40;83.60;;;-143.79;100.00;62634.88;5034041;28;20484;-51
2022/07/03 04:57:41;;;;;;;1.23;0.30;;;24.50;83.40;;;-143.79;100.00;62634.88;5033976;28;20029;-51
2022/07/03 05:00:08;;;;;;;1.85;0.68;;;24.20;83.30;;;-143.79;100.00;62634.88;5033859;28;20120;-51
2022/07/03 05:02:34;;;;;;;0.55;0.30;;;24.40;83.20;;;-143.79;100.00;62634.88;5033749;28;20076;-51
2022/07/03 05:04:59;;;;;;;1.25;0.40;;;23.80;83.10;;;-143.79;100.00;62634.88;5033538;28;20041;-52
2022/07/03 05:07:25;;;;;;;1.77;0.40;;;24.50;83.30;;;-143.79;100.00;62634.88;5033589;28;20033;-50
2022/07/03 05:09:51;;;;;;;0.93;0.28;;;24.30;83.60;;;-143.79;100.00;62634.88;5033754;28;20030;-54
2022/07/03 05:12:17;;;;;;;1.23;0.65;;;23.90;83.20;;;-143.79;100.00;62634.88;5033579;28;20045;-52
2022/07/03 05:14:43;;;;;;;2.78;0.63;;;24.10;83.30;;;-143.79;100.00;62634.88;5033609;28;20472;-54
2022/07/03 05:17:09;;;;;;;0.52;0.30;;;23.80;83.50;;;-143.79;100.00;62634.88;5033824;28;20041;-54
2022/07/03 05:19:38;;;;;;;1.92;0.50;;;24.30;53.60;;;-143.79;100.00;62634.88;5033570;28;20034;-50
2022/07/03 05:22:04;;;;;;;1.52;0.40;;;24.20;83.60;;;-143.79;100.00;62634.88;5033453;28;20637;-53
2022/07/03 05:24:30;;;;;;;1.75;0.63;;;24.40;83.80;;;-143.79;100.00;62634.88;5033419;28;20042;-52
2022/07/03 05:26:55;;;;;;;1.65;0.80;;;23.90;83.30;;;-143.79;100.00;62634.88;5033383;28;20029;-52
2022/07/03 05:29:21;;;;;;;3.03;0.40;;;24.40;83.90;;;-143.79;100.00;62634.88;5033314;28;20044;-52
2022/07/03 05:31:47;;;;;;;1.83;0.50;;;24.30;83.80;;;-143.79;100.00;62634.88;5033383;28;20033;-52
2022/07/03 05:34:12;;;;;;;0.90;0.30;;;24.30;83.70;;;-143.79;100.00;62634.88;5033248;28;20199;-52
2022/07/03 05:36:38;;;;;;;1.38;0.57;;;24.10;83.90;;;-143.79;100.00;62634.88;5033166;28;20047;-50
2022/07/03 05:41:48;;;;;;;1.52;0.40;;;24.40;84.40;;;-143.79;100.00;62634.88;5032840;28;20498;-53
2022/07/03 05:44:14;;;;;;;2.13;0.52;;;24.10;70.60;;;-143.79;100.00;62634.88;5033004;28;20033;-52
2022/07/03 05:46:40;;;;;;;1.00;0.40;;;;;;;-143.79;100.00;62634.88;5032882;28;20373;-53
2022/07/03 05:49:06;;;;;;;0.88;0.45;;;;;;;-143.79;100.00;62634.88;5032977;28;20045;-51
2022/07/03 05:51:32;;;;;;;1.15;0.60;;;24.20;59.10;;;-143.79;100.00;62634.88;5033055;28;20033;-52
2022/07/03 05:53:58;;;;;;;1.45;0.50;;;;;;;-143.79;100.00;62634.88;5032832;28;20392;-51
2022/07/03 05:56:24;;;;;;;2.10;0.50;;;24.00;84.90;;;-143.79;100.00;62634.88;5032761;28;20041;-52
2022/07/03 05:58:50;;;;;;;0.52;0.40;;;;;;;-143.79;100.00;62634.88;5032827;28;20048;-50
2022/07/03 06:01:16;;;;;;;1.95;0.55;;;23.70;84.70;;;-143.79;100.00;62634.88;5032730;28;20052;-51
2022/07/03 06:03:42;;;;;;;0.85;0.30;;;;;;;-143.79;100.00;62634.88;5032582;28;20551;-51
2022/07/03 06:06:08;;;;;;;1.50;0.40;;;24.10;85.00;;;-143.79;100.00;62634.88;5032413;28;20050;-51
2022/07/03 06:08:34;;;;;;;3.25;0.73;;;;;;;-143.79;100.00;62634.88;5032985;28;20036;-53
2022/07/03 06:11:00;;;;;;;2.13;0.68;;;24.00;63.80;;;-143.79;100.00;62634.88;5032665;28;20035;-51
2022/07/03 06:13:26;;;;;;;1.45;0.47;;;24.10;85.20;;;-143.79;100.00;62634.88;5032588;28;20029;-52
2022/07/03 06:15:51;;;;;;;1.48;0.35;;;24.00;85.30;;;-143.79;100.00;62634.88;5032781;28;20495;-51
2022/07/03 06:18:17;;;;;;;3.30;0.73;;;24.00;85.10;;;-143.79;100.00;62634.88;5032597;28;20392;-52
2022/07/03 06:20:43;;;;;;;2.80;0.68;;;23.90;84.90;;;-143.79;100.00;62634.88;5032501;28;20044;-52
2022/07/03 06:23:08;;;;;;;2.55;0.70;;;24.20;85.20;;;-143.79;100.00;62634.88;5032449;28;20029;-53
2022/07/03 06:25:34;;;;;;;1.92;0.90;;;24.10;68.60;;;-143.79;100.00;62634.88;5032337;28;20026;-52
2022/07/03 06:28:00;;;;;;;2.42;0.60;;;23.70;84.80;;;-143.79;100.00;62634.88;5032434;28;20030;-51
2022/07/03 06:30:25;;;;;;;1.02;0.38;;;24.00;85.00;;;-143.79;100.00;62634.88;5032462;28;20399;-51
2022/07/03 06:32:51;;;;;;;2.33;0.40;;;23.70;84.80;;;-143.79;100.00;62634.88;5032341;28;20076;-52
2022/07/03 06:35:17;;;;;;;2.95;0.75;;;23.90;85.30;;;-143.79;100.00;62634.88;5032261;28;20037;-52
2022/07/03 06:37:43;;;;;;;2.25;0.40;;;24.00;85.00;;;-143.79;100.00;62634.88;5032291;28;20041;-54
2022/07/03 06:40:09;;;;;;;2.97;0.50;;;24.00;77.20;;;-143.79;100.00;62634.88;5032231;28;20034;-53
2022/07/03 06:42:35;;;;;;;1.58;0.60;;;24.10;84.80;;;-143.79;100.00;62634.88;5032116;28;20171;-51
2022/07/03 06:45:01;;;;;;;1.80;0.60;;;23.80;84.70;;;-143.79;100.00;62634.88;5032207;28;20059;-51
2022/07/03 06:47:27;;;;;;;2.92;0.50;;;24.10;84.80;;;-143.79;100.00;62634.88;5032104;28;20041;-51
2022/07/03 06:49:52;;;;;;;1.10;0.50;;;24.10;84.80;;;-143.79;100.00;62634.88;5032083;28;20029;-54
2022/07/03 06:52:18;;;;;;;1.67;0.43;;;24.20;76.50;;;-143.79;100.00;62634.88;5032134;28;20045;-52
2022/07/03 06:54:44;;;;;;;0.90;0.40;;;24.20;84.80;;;-143.79;100.00;62634.88;5034981;28;20027;-55
2022/07/03 06:57:12;;;;;;;2.10;0.65;;;24.10;54.30;;;-143.79;100.00;62634.88;5036429;28;20518;-52
2022/07/03 06:59:38;;;;;;;0.77;0.35;;;;;;;-143.79;100.00;62634.88;5036118;28;20038;-54
2022/07/03 07:02:04;;;;;;;1.45;0.45;;;24.00;84.80;;;-143.79;100.00;62634.88;5036066;28;20045;-53
2022/07/03 07:04:30;;;;;;;1.30;0.40;;;;;;;-143.79;100.00;62634.88;5036043;28;20049;-52
2022/07/03 07:06:56;;;;;;;1.48;0.50;;;;;;;-143.79;100.00;62634.88;5035983;28;20091;-51
2022/07/03 07:09:22;;;;;;;2.30;0.60;;;;;;;-143.79;100.00;62634.88;5035875;28;20021;-52
2022/07/03 07:11:48;;;;;;;2.05;0.50;;;23.80;65.10;;;-143.79;100.00;62634.88;5035927;28;20396;-52
2022/07/03 07:14:14;;;;;;;1.58;0.50;;;;;;;-143.79;100.00;62634.88;5035871;28;20026;-53
2022/07/03 07:16:40;;;;;;;1.38;0.43;;;;;;;-143.79;100.00;62634.88;5035806;28;20029;-51
2022/07/03 07:19:06;;;;;;;1.48;0.50;;;;;;;-143.79;100.00;62634.88;5035766;28;20029;-54
2022/07/03 07:21:32;;;;;;;1.80;0.50;;;24.20;85.20;;;-143.79;100.00;62634.88;5035741;28;20078;-52
2022/07/03 07:23:58;;;;;;;1.38;0.57;;;;;;;-143.79;100.00;62634.88;5035843;28;20120;-51
2022/07/03 07:26:24;;;;;;;1.05;0.40;;;24.40;85.80;;;-143.79;100.00;62634.88;5035580;28;20045;-51
2022/07/03 07:28:49;;;;;;;0.60;0.22;;;24.10;85.90;;;-143.79;100.00;62634.88;5035645;28;20033;-50
2022/07/03 07:31:15;;;;;;;1.63;0.50;;;24.00;85.50;;;-143.79;100.00;62634.88;5035634;28;20034;-51
2022/07/03 07:33:41;;;;;;;0.80;0.50;;;24.40;85.60;;;-143.79;100.00;62634.88;5034419;28;20033;-50
2022/07/03 07:36:07;;;;;;;1.25;0.50;;;24.10;85.30;;;-143.79;100.00;62634.88;5035535;28;20403;-53
2022/07/03 07:38:33;;;;;;;2.13;0.63;;;23.70;84.80;;;-143.79;100.00;62634.88;5035431;28;20403;-51
2022/07/03 07:40:59;;;;;;;2.70;0.50;;;24.40;85.70;;;-143.79;100.00;62634.88;5035854;28;20030;-51
2022/07/03 07:43:25;;;;;;;2.33;0.60;;;24.20;85.40;;;-143.79;100.00;62634.88;5035521;28;20499;-53
2022/07/03 07:45:52;;;;;;;2.22;0.73;;;24.30;85.10;;;-143.79;100.00;62634.88;5035256;28;20037;-52
2022/07/03 07:48:18;;;;;;;2.50;0.80;;;;;;;-143.79;100.00;62634.88;5035244;28;20033;-51
2022/07/03 07:50:44;;;;;;;2.22;0.60;;;24.30;64.40;;;-143.79;100.00;62634.88;5035269;28;20547;-52
2022/07/03 07:53:10;;;;;;;1.30;0.50;;;;;;;-143.79;100.00;62634.88;5035413;28;20064;-50
2022/07/03 07:55:36;;;;;;;1.70;0.50;;;24.10;84.80;;;-143.79;100.00;62634.88;5035114;28;20034;-50
2022/07/03 07:58:02;;;;;;;0.90;0.50;;;;;;;-143.79;100.00;62634.88;5035060;28;20040;-50
2022/07/03 08:00:31;;;;;;;1.00;0.40;;;24.20;53.70;;;-143.79;100.00;62634.88;5035121;28;20040;-52
2022/07/03 08:05:41;;;;;;;2.38;0.50;;;24.10;84.50;;;-143.79;100.00;62634.88;5034244;28;20106;-54
2022/07/03 08:08:15;;;;;;;1.45;0.60;;;23.80;84.50;;;-143.79;100.00;62634.88;5034806;28;20383;-51
2022/07/03 08:10:49;;;;;;;2.67;0.30;;;24.10;85.20;;;-143.79;100.00;62634.88;5035142;28;20044;-51
2022/07/03 08:13:19;;;;;;;1.85;0.75;;;24.40;85.20;;;-143.79;100.00;62634.88;5034819;28;20037;-51
2022/07/03 08:15:47;;;;;;;2.30;0.77;;;24.30;84.50;;;-143.79;100.00;62634.88;5034774;28;20114;-50
2022/07/03 08:18:13;;;;;;;0.93;0.45;;;24.40;75.90;;;-143.79;100.00;62634.88;5034879;28;20040;-52
2022/07/03 08:20:39;;;;;;;1.20;0.47;;;24.00;80.90;;;-143.79;100.00;62634.88;5034932;28;20025;-50
2022/07/03 08:23:05;;;;;;;2.70;0.50;;;24.50;85.20;;;-143.79;100.00;62634.88;5034646;28;20567;-51
2022/07/03 08:25:32;;;;;;;2.63;0.70;;;24.50;85.10;;;-143.79;100.00;62634.88;5034652;28;20042;-51
2022/07/03 08:27:58;;;;;;;1.83;0.60;;;;;;;-143.79;100.00;62634.88;5034416;28;20488;-50
2022/07/03 08:30:25;;;;;;;1.67;0.50;;;;;;;-143.79;100.00;62634.88;5034443;28;20033;-53
2022/07/03 08:32:54;;;;;;;2.42;0.38;;;24.10;84.90;;;-143.79;100.00;62634.88;5034459;28;20034;-51
2022/07/03 08:35:20;;;;;;;1.63;0.25;;;;;;;-143.79;100.00;62634.88;5034459;28;20049;-51
2022/07/03 08:37:47;;;;;;;3.20;0.68;;;24.20;57.50;;;-143.79;100.00;62634.88;5034676;28;20366;-54
2022/07/03 08:40:15;;;;;;;2.35;0.43;;;24.10;85.10;;;-143.79;100.00;62634.88;5034548;28;20037;-53
2022/07/03 08:42:57;;;;;;;0.68;0.40;;;24.60;56.00;;;-143.79;100.00;62634.88;5034267;28;20037;-53
2022/07/03 08:45:24;;;;;;;0.82;0.50;;;24.10;85.00;;;-143.79;100.00;62634.88;5034252;28;20052;-52
2022/07/03 08:47:54;;;;;;;1.40;0.50;;;24.30;53.90;;;-143.79;100.00;62634.88;5034327;28;20045;-53
2022/07/03 08:50:20;;;;;;;0.73;0.52;;;;;;;-143.79;100.00;62634.88;5032879;28;20037;-50
2022/07/03 08:52:47;;;;;;;0.68;0.40;;;24.40;67.80;;;-143.79;100.00;62634.88;5034303;28;20025;-50
2022/07/03 08:55:16;;;;;;;1.17;0.60;;;24.30;85.10;;;-143.79;100.00;62634.88;5034295;28;20037;-51
2022/07/03 08:57:43;;;;;;;1.92;0.60;;;24.40;85.20;;;-143.79;100.00;62634.88;5033989;28;20037;-54
2022/07/03 09:00:12;;;;;;;2.17;0.50;;;24.40;84.90;;;-143.79;100.00;62634.88;5033933;28;20045;-55
2022/07/03 09:02:43;;;;;;;2.60;0.60;;;24.40;85.20;;;-143.79;100.00;62634.88;5034075;28;20128;-54
2022/07/03 09:05:11;;;;;;;0.70;0.30;;;24.40;64.60;;;-143.79;100.00;62634.88;5033709;28;20090;-55
2022/07/03 09:07:43;;;;;;;3.88;0.63;;;24.60;84.80;;;-143.79;100.00;62634.88;5033670;28;20438;-55
2022/07/03 09:10:11;;;;;;;1.25;0.50;;;24.20;84.60;;;-143.79;100.00;62634.88;5033733;28;20045;-54
2022/07/03 09:12:38;;;;;;;1.02;0.45;;;24.50;85.00;;;-143.79;100.00;62634.88;5033783;28;20064;-53
2022/07/03 09:15:06;;;;;;;2.58;0.40;;;24.70;84.90;;;-143.79;100.00;62634.88;5033676;28;20446;-52
2022/07/03 09:17:33;;;;;;;0.70;0.30;;;24.60;53.50;;;-143.79;100.00;62634.88;5032580;28;20029;-53
2022/07/03 09:20:03;;;;;;;1.13;0.30;;;24.80;81.80;;;-143.79;100.00;62634.88;5033765;28;20103;-52
2022/07/03 09:22:36;;;;;;;1.13;0.52;;;24.50;84.40;;;-143.79;100.00;62634.88;5033726;28;20029;-52
2022/07/03 09:25:16;;;;;;;1.10;0.30;;;24.70;64.90;;;-143.79;100.00;62634.88;5033427;28;20040;-52
2022/07/03 09:27:52;;;;;;;1.38;0.40;;;24.80;52.90;;;-143.79;100.00;62634.88;5033320;28;20060;-51
2022/07/03 09:30:19;;;;;;;0.43;0.20;;;24.80;53.00;;;-143.79;100.00;62634.88;5033323;28;20069;-50
2022/07/03 09:32:47;;;;;;;1.13;0.50;;;24.90;71.20;;;-143.79;100.00;62634.88;5033297;28;20492;-52
2022/07/03 09:35:27;;;;;;;0.93;0.60;;;24.60;84.30;;;-143.79;100.00;62634.88;5033276;28;20044;-51
2022/07/03 09:38:04;;;;;;;1.10;0.40;;;24.90;71.30;;;-143.79;100.00;62634.88;5033552;28;20116;-51
2022/07/03 09:40:51;;;;;;;0.85;0.40;;;25.00;84.20;;;-143.79;100.00;62634.88;5033297;28;20064;-50
2022/07/03 09:43:31;;;;;;;2.05;0.60;;;24.70;84.10;;;-143.79;100.00;62634.88;5032983;28;20499;-50
2022/07/03 09:46:01;;;;;;;0.75;0.38;;;24.80;79.40;;;-143.79;100.00;62634.88;5033321;28;20038;-53
2022/07/03 09:48:41;;;;;;;0.85;0.30;;;25.20;84.30;;;-143.79;100.00;62634.88;5032955;28;20519;-50
2022/07/03 09:51:25;;;;;;;1.10;0.50;;;25.10;84.20;;;-143.79;100.00;62634.88;5033069;28;20025;-51
2022/07/03 09:54:01;;;;;;;1.48;0.60;;;25.00;76.10;;;-143.79;100.00;62634.88;5032000;28;20060;-50
2022/07/03 09:56:27;;;;;;;0.82;0.30;;;25.00;84.10;;;-143.79;100.00;62634.88;5032065;28;20511;-50
2022/07/03 09:59:08;;;;;;;1.45;0.50;;;25.10;84.50;;;-143.79;100.00;62634.88;5032858;28;20091;-49
2022/07/03 10:01:47;;;;;;;0.77;0.50;;;24.90;84.10;;;-143.79;100.00;62634.88;5032765;28;20484;-51
2022/07/03 10:04:22;;;;;;;1.08;0.60;;;25.00;76.60;;;-143.79;100.00;62634.88;5033160;28;20029;-53
2022/07/03 10:06:58;;;;;;;1.60;0.57;;;25.10;53.20;;;-143.79;100.00;62634.88;5032623;28;20090;-50
2022/07/03 10:09:33;;;;;;;4.18;0.95;;;25.20;53.30;;;-143.79;100.00;62634.88;5032663;28;20029;-54
2022/07/03 10:12:02;;;;;;;1.67;0.57;;;25.40;84.40;;;-143.79;100.00;62634.88;5032567;28;20040;-53
2022/07/03 10:14:30;;;;;;;3.85;0.40;;;25.20;84.60;;;-143.79;100.00;62634.88;5033316;28;20086;-54
2022/07/03 10:17:01;;;;;;;9.25;0.70;;;;;;;-143.79;100.00;62634.88;5033704;28;20116;-52
2022/07/03 10:19:38;;;;;;;0.88;0.50;;;25.30;53.30;;;-143.79;100.00;62634.88;5033170;28;20152;-52
2022/07/03 10:22:10;;;;;;;5.15;0.60;;;25.30;83.70;;;-143.79;100.00;62634.88;5032887;28;20065;-54
2022/07/03 10:24:36;;;;;;;3.90;0.50;;;25.70;84.00;;;-143.79;100.00;62634.88;5031219;28;20547;-54
2022/07/03 10:27:03;;;;;;;2.15;0.40;;;25.50;83.60;;;-143.79;100.00;62634.88;5033231;28;20029;-54